Time;durP1;ratioP1;P1;durP2;ratioP2;P2;SDS_P1;SDS_P2;PMS_P1;PMS_P2;Temp;Humidity;BMP_temperature;BMP_pressure;BME280_temperature;BME280_humidity;BME280_pressure;Samples;Min_cycle;Max_cycle;Signal;HPM_P1;HPM_P2
2023/05/27 00:00:47;;;;;;;20.02;5.72;;;;;;;8.30;89.55;102928.94;5072895;28;20388;-91
2023/05/27 00:03:13;;;;;;;15.43;5.00;;;;;;;8.30;89.40;102934.06;5072983;28;20032;-81
2023/05/27 00:05:39;;;;;;;14.20;5.10;;;;;;;8.30;89.26;102928.06;5072810;28;20484;-90
2023/05/27 00:08:04;;;;;;;16.30;5.53;;;;;;;8.11;89.42;102896.72;5072580;28;20025;-82
2023/05/27 00:10:30;;;;;;;18.95;5.18;;;;;;;8.10;89.81;102915.59;5074751;28;20562;-90
2023/05/27 00:12:55;;;;;;;18.85;5.53;;;;;;;8.09;89.80;102918.22;5079068;28;20221;-77
2023/05/27 00:15:21;;;;;;;15.27;4.60;;;;;;;8.05;90.68;102922.53;5079456;28;20499;-88
2023/05/27 00:17:47;;;;;;;15.18;4.95;;;;;;;8.03;90.90;102920.00;5079498;28;20059;-88
2023/05/27 00:20:12;;;;;;;14.55;5.25;;;;;;;7.86;90.75;102898.03;5079280;28;20020;-85
2023/05/27 00:22:38;;;;;;;17.35;5.38;;;;;;;7.93;91.27;102920.22;5079118;28;20507;-89
2023/05/27 00:25:03;;;;;;;18.63;5.55;;;;;;;7.91;91.17;102917.66;5079074;28;20039;-88
2023/05/27 00:27:29;;;;;;;13.65;5.00;;;;;;;7.73;91.59;102900.84;5078848;28;20099;-88
2023/05/27 00:29:54;;;;;;;16.95;5.20;;;;;;;7.78;91.73;102910.22;5079059;28;20032;-88
2023/05/27 00:32:19;;;;;;;17.27;5.30;;;;;;;7.84;92.08;102915.22;5079173;28;20135;-92
2023/05/27 00:34:45;;;;;;;15.48;5.38;;;;;;;7.75;92.02;102909.38;5079032;28;20139;-86
2023/05/27 00:37:10;;;;;;;9.80;4.20;;;;;;;7.74;92.21;102914.53;5078918;28;20046;-89
2023/05/27 00:39:36;;;;;;;17.23;5.15;;;;;;;7.69;92.47;102912.06;5078588;28;20032;-86
2023/05/27 00:42:01;;;;;;;16.38;5.68;;;;;;;7.69;92.39;102906.94;5078811;28;20033;-76
2023/05/27 00:44:27;;;;;;;15.05;5.13;;;;;;;7.34;92.20;102856.09;5078773;28;20032;-87
2023/05/27 00:46:53;;;;;;;15.65;5.13;;;;;;;7.47;92.75;102898.75;5079183;28;20032;-88
2023/05/27 00:49:18;;;;;;;16.58;5.65;;;;;;;7.58;92.82;102915.72;5078884;28;20028;-88
2023/05/27 00:51:44;;;;;;;12.60;4.95;;;;;;;7.54;93.10;102906.31;5061314;28;20032;-91
2023/05/27 00:54:10;;;;;;;13.93;4.90;;;;;;;7.47;92.93;102905.56;5078803;28;20027;-85
2023/05/27 00:56:36;;;;;;;15.75;5.43;;;;;;;7.49;93.38;102901.28;5078924;28;20028;-91
2023/05/27 00:59:02;;;;;;;16.50;5.22;;;;;;;7.37;93.66;102883.47;5078690;28;20099;-78
2023/05/27 01:01:28;;;;;;;15.50;4.82;;;;;;;7.24;93.95;102864.00;5078947;28;20352;-83
2023/05/27 01:03:55;;;;;;;16.70;5.05;;;;;;;7.39;94.23;102892.88;5078977;28;20095;-84
2023/05/27 01:06:43;;;;;;;15.10;4.75;;;;;;;7.40;94.00;102899.72;5078847;28;20066;-92
2023/05/27 01:09:31;;;;;;;14.82;5.45;;;;;;;7.32;93.82;102880.16;5078380;28;20032;-92
2023/05/27 01:12:14;;;;;;;15.32;4.85;;;;;;;7.26;94.04;102875.94;5078694;28;20052;-82
2023/05/27 01:14:43;;;;;;;15.48;5.45;;;;;;;7.30;94.42;102893.03;5078646;28;20032;-88
2023/05/27 01:17:10;;;;;;;19.40;5.50;;;;;;;7.30;94.61;102889.59;5078753;28;20119;-85
2023/05/27 01:19:44;;;;;;;15.20;4.75;;;;;;;7.30;94.58;102894.75;5078609;28;20016;-82
2023/05/27 01:22:12;;;;;;;16.10;5.35;;;;;;;7.29;94.92;102890.47;5076260;28;20045;-80
2023/05/27 01:24:37;;;;;;;15.38;5.57;;;;;;;7.22;94.82;102886.31;5075445;28;20025;-82
2023/05/27 01:27:03;;;;;;;13.48;5.32;;;;;;;7.14;95.13;102873.56;5075455;28;20022;-86
2023/05/27 01:29:30;;;;;;;15.68;4.80;;;;;;;7.24;95.01;102887.13;5075288;28;20033;-90
2023/05/27 01:32:06;;;;;;;13.68;5.30;;;;;;;7.21;95.42;102884.63;5075483;28;20024;-88
2023/05/27 01:34:44;;;;;;;17.90;5.47;;;;;;;7.14;95.53;102882.13;5075284;28;20430;-81
2023/05/27 01:37:13;;;;;;;16.90;4.80;;;;;;;7.08;96.17;102882.25;5075281;28;20107;-89
2023/05/27 01:39:40;;;;;;;14.40;5.35;;;;;;;7.04;95.93;102879.72;5075048;28;20048;-83
2023/05/27 01:42:06;;;;;;;14.65;5.20;;;;;;;7.02;96.59;102874.63;5075140;28;20107;-82
2023/05/27 01:44:32;;;;;;;12.60;5.18;;;;;;;6.84;96.47;102854.34;5075169;28;20020;-81
2023/05/27 01:47:01;;;;;;;13.15;5.03;;;;;;;6.98;96.46;102880.69;5075049;28;20040;-83
2023/05/27 01:49:27;;;;;;;14.02;4.90;;;;;;;6.90;96.83;102872.25;5074900;28;20032;-86
2023/05/27 01:51:52;;;;;;;14.55;4.68;;;;;;;6.98;97.33;102882.38;5074864;28;20024;-88
2023/05/27 01:54:17;;;;;;;14.57;5.30;;;;;;;6.84;97.69;102869.75;5075016;28;20025;-80
2023/05/27 01:56:43;;;;;;;13.50;4.88;;;;;;;6.90;97.50;102882.53;5056616;28;20056;-90
2023/05/27 01:59:08;;;;;;;17.10;6.00;;;;;;;6.69;97.59;102846.88;5074802;28;20033;-85
2023/05/27 02:01:34;;;;;;;15.05;5.13;;;;;;;6.75;97.63;102862.19;5074780;28;20468;-78
2023/05/27 02:03:59;;;;;;;16.55;5.88;;;;;;;6.68;97.59;102858.84;5074604;28;20021;-84
2023/05/27 02:06:25;;;;;;;15.68;5.00;;;;;;;6.74;98.30;102870.75;5074757;28;20033;-78
2023/05/27 02:08:50;;;;;;;14.27;5.10;;;;;;;6.74;98.63;102879.31;5074362;28;20487;-88
2023/05/27 02:11:16;;;;;;;13.73;5.20;;;;;;;6.66;98.57;102873.44;5074541;28;20055;-84
2023/05/27 02:13:42;;;;;;;16.38;5.00;;;;;;;6.47;98.63;102844.59;5056554;28;20032;-85
2023/05/27 02:16:07;;;;;;;16.48;5.70;;;;;;;6.65;99.27;102881.16;5074423;28;20399;-91
2023/05/27 02:18:34;;;;;;;17.23;5.43;;;;;;;6.26;99.54;102827.78;5074332;28;20135;-86
2023/05/27 02:21:05;;;;;;;16.67;5.53;;;;;;;6.45;99.85;102858.31;5074106;28;20400;-88
2023/05/27 02:23:31;;;;;;;16.98;5.63;;;;;;;6.46;100.00;102855.72;5074579;28;20442;-90
2023/05/27 02:25:56;;;;;;;14.85;6.05;;;;;;;6.45;100.00;102853.19;5074830;28;20048;-75
2023/05/27 02:28:21;;;;;;;13.88;5.15;;;;;;;6.56;100.00;102877.00;5074097;28;20043;-81
2023/05/27 02:30:47;;;;;;;18.25;6.40;;;;;;;6.50;100.00;102874.53;5074265;28;20157;-74
2023/05/27 02:33:12;;;;;;;15.70;5.30;;;;;;;6.54;100.00;102882.16;5073449;28;20063;-78
2023/05/27 02:35:37;;;;;;;19.45;6.45;;;;;;;6.54;100.00;102871.88;5073220;28;20028;-75
2023/05/27 02:38:02;;;;;;;18.98;5.55;;;;;;;6.51;100.00;102871.94;5074088;28;20440;-75
2023/05/27 02:40:29;;;;;;;17.73;6.38;;;;;;;6.43;100.00;102862.63;5073678;28;20593;-76
2023/05/27 02:42:56;;;;;;;17.10;5.47;;;;;;;6.45;100.00;102884.84;5073977;28;20056;-76
2023/05/27 02:45:21;;;;;;;17.58;6.10;;;;;;;6.39;100.00;102873.78;5073964;28;20135;-75
2023/05/27 02:47:46;;;;;;;16.65;6.00;;;;;;;6.43;100.00;102886.56;5073749;28;20466;-76
2023/05/27 02:50:12;;;;;;;15.80;6.10;;;;;;;6.44;100.00;102893.41;5073697;28;20036;-76
2023/05/27 02:52:37;;;;;;;18.25;5.57;;;;;;;6.39;100.00;102892.63;5073613;28;20024;-75
2023/05/27 02:55:03;;;;;;;15.73;5.72;;;;;;;6.35;100.00;102896.09;5073667;28;20030;-77
2023/05/27 02:57:28;;;;;;;15.07;4.97;;;;;;;6.26;100.00;102886.78;5073447;28;20020;-79
2023/05/27 02:59:53;;;;;;;14.95;5.50;;;;;;;6.29;100.00;102894.47;5073738;28;20024;-77
2023/05/27 03:02:19;;;;;;;17.10;6.07;;;;;;;6.03;100.00;102851.16;5055763;28;20056;-79
2023/05/27 03:04:44;;;;;;;18.92;6.47;;;;;;;6.13;100.00;102872.41;5073492;28;20029;-81
2023/05/27 03:07:09;;;;;;;16.77;5.68;;;;;;;6.27;100.00;102896.16;5073267;28;20388;-81
2023/05/27 03:09:35;;;;;;;15.60;6.22;;;;;;;6.09;100.00;102880.13;5073401;28;20078;-76
2023/05/27 03:12:00;;;;;;;15.85;6.03;;;;;;;6.06;100.00;102877.63;5073306;28;20021;-79
2023/05/27 03:14:25;;;;;;;16.60;5.93;;;;;;;6.18;100.00;102906.53;5073185;28;20021;-78
2023/05/27 03:16:51;;;;;;;20.50;6.53;;;;;;;6.17;100.00;102904.84;5073147;28;20020;-79
2023/05/27 03:19:16;;;;;;;15.85;5.72;;;;;;;6.13;100.00;102899.78;5073129;28;20506;-78
2023/05/27 03:21:41;;;;;;;16.17;6.05;;;;;;;5.95;100.00;102872.59;5072891;28;20091;-83
2023/05/27 03:24:07;;;;;;;15.02;6.55;;;;;;;6.15;100.00;102895.47;5073351;28;20116;-79
2023/05/27 03:26:32;;;;;;;18.90;6.25;;;;;;;6.12;100.00;102891.22;5072821;28;20088;-79
2023/05/27 03:28:57;;;;;;;20.58;6.88;;;;;;;6.06;100.00;102885.31;5072884;28;20036;-75
2023/05/27 03:31:23;;;;;;;16.52;6.22;;;;;;;6.13;100.00;102886.94;5073072;28;20082;-79
2023/05/27 03:33:49;;;;;;;15.48;6.43;;;;;;;5.95;100.00;102860.63;5072997;28;20035;-79
2023/05/27 03:36:14;;;;;;;18.67;6.80;;;;;;;6.13;100.00;102884.38;5072948;28;20093;-77
2023/05/27 03:38:40;;;;;;;16.13;6.50;;;;;;;6.14;100.00;102881.78;5072715;28;20119;-78
2023/05/27 03:41:06;;;;;;;16.70;6.28;;;;;;;6.10;100.00;102876.75;5072738;28;20134;-77
2023/05/27 03:43:31;;;;;;;16.65;6.45;;;;;;;6.06;100.00;102872.50;5072593;28;20024;-78
2023/05/27 03:45:56;;;;;;;16.30;6.40;;;;;;;5.87;100.00;102834.19;5072686;28;20112;-77
2023/05/27 03:48:22;;;;;;;15.27;6.32;;;;;;;6.15;100.00;102874.94;5072633;28;20056;-78
2023/05/27 03:50:47;;;;;;;25.65;7.13;;;;;;;6.05;100.00;102851.13;5072718;28;20028;-80
2023/05/27 03:53:12;;;;;;;17.45;6.82;;;;;;;6.23;100.00;102873.16;5072681;28;20107;-78
2023/05/27 03:55:38;;;;;;;18.38;6.47;;;;;;;6.23;100.00;102873.16;5072894;28;20032;-80
2023/05/27 03:58:04;;;;;;;23.58;7.13;;;;;;;6.13;100.00;102848.47;5054422;28;20040;-78
2023/05/27 04:00:30;;;;;;;14.13;6.72;;;;;;;6.29;100.00;102867.91;5072538;28;20103;-78
2023/05/27 04:02:56;;;;;;;18.00;6.55;;;;;;;6.28;100.00;102864.50;5055011;28;20411;-75
2023/05/27 04:05:21;;;;;;;19.30;6.90;;;;;;;6.17;100.00;102837.28;5072570;28;20487;-75
2023/05/27 04:07:47;;;;;;;21.63;7.28;;;;;;;6.34;100.00;102863.59;5054851;28;20032;-86
2023/05/27 04:10:12;;;;;;;17.10;6.82;;;;;;;6.22;100.00;102840.66;5072235;28;20411;-82
2023/05/27 04:12:41;;;;;;;18.65;7.30;;;;;;;6.39;100.00;102866.09;5072590;28;20103;-78
2023/05/27 04:15:08;;;;;;;19.00;6.72;;;;;;;6.47;100.00;102869.41;5072911;28;20066;-90
2023/05/27 04:17:33;;;;;;;18.95;6.93;;;;;;;6.51;100.00;102864.22;5072544;28;20043;-91
2023/05/27 04:19:59;;;;;;;19.38;6.15;;;;;;;6.57;100.00;102860.72;5072800;28;20032;-89
2023/05/27 04:22:24;;;;;;;19.92;6.70;;;;;;;6.58;100.00;102850.41;5072536;28;20438;-89
2023/05/27 04:24:52;;;;;;;19.35;7.18;;;;;;;6.60;100.00;102853.00;5072507;28;20031;-91
2023/05/27 04:27:19;;;;;;;18.20;7.10;;;;;;;6.72;100.00;102857.94;5072598;28;20411;-92
2023/05/27 04:29:45;;;;;;;21.10;7.53;;;;;;;6.55;100.00;102811.97;5072254;28;20047;-85
2023/05/27 04:32:12;;;;;;;18.33;7.20;;;;;;;6.59;100.00;102805.94;5072525;28;20032;-89
2023/05/27 04:34:41;;;;;;;17.88;7.28;;;;;;;6.96;100.00;102848.16;5072518;28;20170;-90
2023/05/27 04:37:09;;;;;;;19.50;7.57;;;;;;;6.88;100.00;102825.16;5072385;28;20054;-89
2023/05/27 04:39:35;;;;;;;20.58;7.72;;;;;;;7.06;100.00;102837.72;5072081;28;20012;-90
2023/05/27 04:42:01;;;;;;;17.85;7.75;;;;;;;6.96;100.00;102809.63;5072231;28;20379;-85
2023/05/27 04:44:28;;;;;;;17.73;6.72;;;;;;;7.12;100.00;102835.06;5072424;28;20032;-88
2023/05/27 04:46:54;;;;;;;21.60;7.10;;;;;;;7.15;100.00;102837.56;5072396;28;20116;-89
2023/05/27 04:49:22;;;;;;;17.95;7.30;;;;;;;7.17;100.00;102835.81;5072233;28;20025;-89
2023/05/27 04:51:47;;;;;;;17.40;7.05;;;;;;;7.23;100.00;102828.91;5072356;28;20028;-86
2023/05/27 04:54:13;;;;;;;21.88;7.75;;;;;;;7.27;100.00;102826.22;5054011;28;20442;-90
2023/05/27 04:56:38;;;;;;;15.50;7.25;;;;;;;7.03;100.00;102776.13;5072111;28;20491;-89
2023/05/27 04:59:05;;;;;;;20.10;7.38;;;;;;;7.22;100.00;102801.50;5075554;28;20033;-90
2023/05/27 05:01:48;;;;;;;17.58;6.72;;;;;;;7.49;100.00;102831.88;5075787;28;20024;-88
2023/05/27 05:04:14;;;;;;;21.17;7.65;;;;;;;7.94;100.00;102824.97;5075954;28;20078;-85
2023/05/27 05:06:40;;;;;;;17.27;7.80;;;;;;;8.63;95.34;102762.56;5075834;28;20419;-91
2023/05/27 05:09:05;;;;;;;15.82;6.57;;;;;;;9.73;89.41;102808.72;5075561;28;20036;-88
2023/05/27 05:11:31;;;;;;;19.52;6.88;;;;;;;10.73;85.83;102832.47;5075728;28;20376;-90
2023/05/27 05:13:57;;;;;;;17.20;6.82;;;;;;;11.40;81.67;102830.22;5075733;28;20043;-88
2023/05/27 05:16:22;;;;;;;24.63;6.97;;;;;;;12.06;77.96;102831.34;5075482;28;20027;-90
2023/05/27 05:18:47;;;;;;;16.52;6.53;;;;;;;12.74;74.98;102828.72;5075540;28;20357;-81
2023/05/27 05:21:13;;;;;;;15.77;6.13;;;;;;;13.27;71.11;102813.56;5075211;28;20128;-87
2023/05/27 05:23:39;;;;;;;16.05;6.40;;;;;;;13.68;69.17;102834.31;5075448;28;20026;-87
2023/05/27 05:26:06;;;;;;;16.38;6.15;;;;;;;14.05;67.15;102826.53;5075766;28;20028;-90
2023/05/27 05:28:31;;;;;;;17.25;5.88;;;;;;;14.35;67.14;102819.09;5075188;28;20020;-83
2023/05/27 05:30:56;;;;;;;21.55;5.65;;;;;;;14.82;63.74;102820.34;5075543;28;20031;-90
2023/05/27 05:33:22;;;;;;;16.15;5.03;;;;;;;14.86;63.39;102782.88;5075231;28;20050;-89
2023/05/27 05:35:47;;;;;;;12.45;5.20;;;;;;;15.56;60.29;102810.50;5075199;28;20044;-85
2023/05/27 05:38:12;;;;;;;17.00;5.55;;;;;;;15.57;60.15;102832.16;5075204;28;20024;-87
2023/05/27 05:40:37;;;;;;;17.17;5.38;;;;;;;15.57;59.07;102772.28;5074900;28;20111;-81
2023/05/27 05:43:03;;;;;;;13.60;5.20;;;;;;;16.13;57.89;102821.38;5075034;28;20070;-87
2023/05/27 05:45:28;;;;;;;16.10;5.65;;;;;;;16.03;58.15;102818.41;5056746;28;20036;-80
2023/05/27 05:47:53;;;;;;;11.25;4.75;;;;;;;16.15;57.67;102821.28;5075254;28;20074;-85
2023/05/27 05:50:19;;;;;;;13.73;5.57;;;;;;;16.31;56.36;102819.50;5076405;28;20435;-90
2023/05/27 05:52:44;;;;;;;16.33;5.50;;;;;;;16.38;57.03;102817.38;5074960;28;20491;-90
2023/05/27 05:55:09;;;;;;;15.43;4.93;;;;;;;16.86;55.92;102800.75;5074683;28;20039;-88
2023/05/27 05:57:35;;;;;;;13.45;5.20;;;;;;;17.80;53.81;102814.28;5075111;28;20104;-87
2023/05/27 06:00:00;;;;;;;14.27;5.47;;;;;;;18.11;51.33;102811.44;5074922;28;20021;-88
2023/05/27 06:02:25;;;;;;;14.68;5.30;;;;;;;17.77;52.58;102816.16;5074760;28;20017;-84
2023/05/27 06:04:51;;;;;;;15.48;5.50;;;;;;;17.98;51.26;102808.75;5074755;28;20058;-89
2023/05/27 06:07:16;;;;;;;13.60;5.15;;;;;;;17.43;52.21;102793.00;5074696;28;20059;-84
2023/05/27 06:09:42;;;;;;;14.93;5.53;;;;;;;17.06;52.73;102800.41;5074247;28;20116;-87
2023/05/27 06:12:07;;;;;;;18.40;5.95;;;;;;;16.68;53.88;102758.28;5076025;28;20037;-89
2023/05/27 06:14:32;;;;;;;15.93;5.80;;;;;;;17.23;53.55;102804.66;5074764;28;20020;-90
2023/05/27 06:16:58;;;;;;;13.00;5.10;;;;;;;17.90;52.57;102805.78;5074818;28;20066;-89
2023/05/27 06:19:23;;;;;;;14.02;5.43;;;;;;;18.78;50.38;102804.50;5074807;28;20031;-87
2023/05/27 06:21:48;;;;;;;15.55;5.70;;;;;;;18.90;49.11;102767.00;5074518;28;20033;-90
2023/05/27 06:24:15;;;;;;;17.90;5.55;;;;;;;19.79;48.49;102802.00;5074369;28;20025;-89
2023/05/27 06:26:40;;;;;;;13.70;5.25;;;;;;;20.25;45.42;102768.84;5074179;28;20096;-86
2023/05/27 06:29:05;;;;;;;15.50;5.28;;;;;;;19.38;46.46;102769.84;5055580;28;20132;-86
2023/05/27 06:31:32;;;;;;;14.45;5.65;;;;;;;19.38;46.40;102777.69;5074108;28;20020;-88
2023/05/27 06:33:58;;;;;;;16.60;5.63;;;;;;;19.14;47.78;102754.03;5074290;28;20028;-86
2023/05/27 06:36:23;;;;;;;13.02;4.95;;;;;;;19.38;46.42;102774.25;5074128;28;20394;-90
2023/05/27 06:38:49;;;;;;;13.65;5.50;;;;;;;19.30;47.68;102769.53;5074233;28;20062;-85
2023/05/27 06:41:14;;;;;;;13.43;5.25;;;;;;;19.83;46.09;102775.44;5074150;28;20029;-77
2023/05/27 06:43:39;;;;;;;16.95;5.57;;;;;;;20.02;45.67;102783.66;5073975;28;20495;-82
2023/05/27 06:46:05;;;;;;;15.65;5.35;;;;;;;20.31;45.07;102781.53;5072567;28;20019;-81
2023/05/27 06:48:30;;;;;;;18.17;5.55;;;;;;;19.84;45.22;102776.25;5074152;28;20460;-76
2023/05/27 06:50:55;;;;;;;14.30;5.50;;;;;;;19.27;46.02;102738.31;5073737;28;20024;-80
2023/05/27 06:53:21;;;;;;;19.00;5.70;;;;;;;19.46;45.54;102740.47;5073795;28;20060;-78
2023/05/27 06:55:46;;;;;;;14.50;4.93;;;;;;;19.01;47.47;102750.56;5055928;28;20024;-75
2023/05/27 06:58:12;;;;;;;16.63;5.60;;;;;;;19.12;47.54;102769.00;5073427;28;20099;-75
2023/05/27 07:00:37;;;;;;;14.82;5.53;;;;;;;19.38;46.90;102748.03;5073448;28;20455;-75
2023/05/27 07:03:03;;;;;;;15.43;5.20;;;;;;;19.22;46.15;102750.88;5073557;28;20047;-73
2023/05/27 07:05:28;;;;;;;16.02;5.60;;;;;;;19.22;46.60;102743.03;5073770;28;20452;-72
2023/05/27 07:07:53;;;;;;;14.98;5.72;;;;;;;20.25;45.29;102754.91;5073465;28;20456;-72
2023/05/27 07:10:19;;;;;;;14.15;5.60;;;;;;;21.00;43.17;102762.44;5073383;28;20078;-77
2023/05/27 07:12:44;;;;;;;14.85;5.95;;;;;;;20.93;42.69;102762.06;5073346;28;20102;-76
2023/05/27 07:15:10;;;;;;;17.65;5.35;;;;;;;20.66;43.33;102754.50;5072945;28;20555;-75
2023/05/27 07:17:35;;;;;;;15.00;5.75;;;;;;;20.66;43.13;102766.78;5073503;28;20112;-81
2023/05/27 07:20:01;;;;;;;13.63;5.97;;;;;;;20.70;44.28;102758.56;5073157;28;20032;-82
2023/05/27 07:22:26;;;;;;;15.77;5.20;;;;;;;21.12;43.19;102764.09;5073310;28;20093;-79
2023/05/27 07:24:52;;;;;;;16.25;6.10;;;;;;;21.45;43.56;102764.16;5073443;28;20016;-86
2023/05/27 07:27:17;;;;;;;15.32;5.40;;;;;;;21.84;40.60;102758.50;5073241;28;20491;-79
2023/05/27 07:29:42;;;;;;;16.65;5.53;;;;;;;21.64;41.33;102750.41;5054978;28;20034;-85
2023/05/27 07:32:08;;;;;;;16.35;5.95;;;;;;;21.66;41.44;102723.97;5073149;28;20047;-73
2023/05/27 07:34:33;;;;;;;17.35;6.13;;;;;;;20.45;43.11;102748.22;5073034;28;20024;-79
2023/05/27 07:36:58;;;;;;;14.73;6.40;;;;;;;18.83;46.97;102757.06;5072939;28;20384;-75
2023/05/27 07:39:24;;;;;;;16.20;6.18;;;;;;;17.58;50.40;102754.63;5073026;28;20104;-75
2023/05/27 07:41:49;;;;;;;16.25;6.63;;;;;;;16.89;53.54;102750.97;5072882;28;20024;-80
2023/05/27 07:44:14;;;;;;;17.23;6.70;;;;;;;16.21;55.07;102727.06;5073096;28;20035;-84
2023/05/27 07:46:40;;;;;;;15.82;6.57;;;;;;;15.63;57.21;102725.94;5072706;28;20023;-84
2023/05/27 07:49:05;;;;;;;15.55;6.82;;;;;;;15.57;58.69;102744.47;5072720;28;20522;-80
2023/05/27 07:51:31;;;;;;;17.20;6.88;;;;;;;15.33;61.29;102719.72;5072952;28;20052;-78
2023/05/27 07:53:57;;;;;;;18.55;7.43;;;;;;;14.99;59.82;102705.88;5072982;28;20056;-83
2023/05/27 07:56:22;;;;;;;17.58;7.07;;;;;;;15.02;59.95;102723.94;5073051;28;20510;-81
2023/05/27 07:58:47;;;;;;;13.00;5.55;;;;;;;15.04;69.21;102723.84;5072774;28;20024;-84
2023/05/27 08:01:13;;;;;;;15.20;7.10;;;;;;;15.01;64.68;102716.19;5072469;28;20064;-77
2023/05/27 08:03:40;;;;;;;17.83;7.00;;;;;;;14.80;62.43;102694.75;5072734;28;20052;-77
2023/05/27 08:06:05;;;;;;;15.43;6.65;;;;;;;14.89;65.33;102730.69;5072651;28;20021;-80
2023/05/27 08:08:30;;;;;;;15.82;6.82;;;;;;;14.98;63.87;102706.81;5072675;28;20017;-85
2023/05/27 08:10:56;;;;;;;15.80;6.25;;;;;;;15.08;63.34;102720.19;5072694;28;20420;-84
2023/05/27 08:13:22;;;;;;;16.92;6.60;;;;;;;15.25;66.15;102720.16;5072643;28;20388;-77
2023/05/27 08:15:47;;;;;;;20.27;6.68;;;;;;;15.15;67.54;102718.94;5072208;28;20460;-75
2023/05/27 08:18:13;;;;;;;16.92;6.63;;;;;;;15.11;65.83;102713.03;5072107;28;20421;-81
2023/05/27 08:20:38;;;;;;;18.35;7.03;;;;;;;14.86;64.07;102686.63;5072537;28;20468;-82
2023/05/27 08:23:04;;;;;;;17.40;6.90;;;;;;;14.86;64.85;102694.44;5072557;28;20582;-77
2023/05/27 08:25:29;;;;;;;15.25;6.55;;;;;;;15.21;67.62;102708.19;5072563;28;20388;-85
2023/05/27 08:28:01;;;;;;;15.23;7.25;;;;;;;15.61;68.57;102688.72;5072553;28;20028;-83
2023/05/27 08:30:27;;;;;;;16.55;6.57;;;;;;;15.86;64.79;102666.53;5072089;28;20122;-80
2023/05/27 08:32:53;;;;;;;18.40;7.10;;;;;;;15.88;61.27;102682.91;5057440;28;20059;-81
2023/05/27 08:35:19;;;;;;;19.58;7.13;;;;;;;15.62;61.10;102669.56;5076685;28;20021;-80
2023/05/27 08:37:44;;;;;;;17.13;6.82;;;;;;;15.70;64.54;102672.59;5058215;28;20133;-79
2023/05/27 08:40:15;;;;;;;16.13;7.00;;;;;;;15.81;64.86;102665.94;5076541;28;20032;-82
2023/05/27 08:42:41;;;;;;;17.23;8.10;;;;;;;15.95;63.59;102666.03;5076344;28;20142;-81
2023/05/27 08:45:07;;;;;;;23.25;8.05;;;;;;;15.84;61.41;102629.31;5076297;28;20099;-85
2023/05/27 08:47:33;;;;;;;17.20;7.47;;;;;;;15.85;61.56;102615.34;5076013;28;20024;-84
2023/05/27 08:49:58;;;;;;;14.65;7.10;;;;;;;16.22;64.77;102642.72;5076168;28;20032;-88
2023/05/27 08:52:26;;;;;;;20.65;7.65;;;;;;;16.45;66.94;102657.91;5057917;28;20072;-82
2023/05/27 08:54:52;;;;;;;17.92;7.47;;;;;;;16.23;60.27;102623.59;5076306;28;20183;-87
2023/05/27 08:57:21;;;;;;;17.35;6.63;;;;;;;16.45;62.07;102655.28;5076542;28;20051;-78
2023/05/27 08:59:47;;;;;;;20.38;7.55;;;;;;;16.22;60.41;102633.16;5076142;28;20021;-84
2023/05/27 09:02:13;;;;;;;19.23;8.20;;;;;;;16.32;60.85;102652.56;5075639;28;20052;-89
2023/05/27 09:04:41;;;;;;;14.90;6.18;;;;;;;16.61;63.27;102639.56;5076138;28;20055;-87
2023/05/27 09:07:07;;;;;;;14.75;6.32;;;;;;;17.02;64.38;102651.94;5075905;28;20383;-80
2023/05/27 09:09:33;;;;;;;14.63;6.30;;;;;;;17.36;61.14;102643.66;5075717;28;20021;-84
2023/05/27 09:12:02;;;;;;;19.67;7.25;;;;;;;17.53;56.73;102632.16;5075639;28;20030;-85
2023/05/27 09:14:32;;;;;;;15.35;6.47;;;;;;;17.74;58.23;102638.66;5075716;28;20487;-88
2023/05/27 09:16:57;;;;;;;15.57;6.55;;;;;;;17.55;52.66;102643.34;5075496;28;20035;-89
2023/05/27 09:19:23;;;;;;;16.27;6.80;;;;;;;17.57;60.24;102636.25;5075808;28;20024;-88
2023/05/27 09:21:54;;;;;;;18.15;7.28;;;;;;;17.79;54.92;102630.50;5075174;28;20041;-84
2023/05/27 09:24:23;;;;;;;17.40;7.22;;;;;;;17.86;54.27;102616.09;5075884;28;20029;-89
2023/05/27 09:26:51;;;;;;;16.77;6.57;;;;;;;18.06;57.40;102628.69;5074256;28;20025;-82
2023/05/27 09:29:18;;;;;;;14.70;6.53;;;;;;;18.11;56.56;102610.13;5058374;28;20028;-80
2023/05/27 09:31:44;;;;;;;15.57;6.78;;;;;;;18.11;55.64;102607.50;5075317;28;20110;-88
2023/05/27 09:34:15;;;;;;;16.58;7.18;;;;;;;17.98;54.68;102598.78;5056407;28;20040;-85
2023/05/27 09:36:48;;;;;;;19.73;7.40;;;;;;;17.98;57.94;102611.84;5075250;28;20068;-86
2023/05/27 09:39:22;;;;;;;16.23;7.10;;;;;;;17.90;55.20;102609.75;5057290;28;20032;-85
2023/05/27 09:41:58;;;;;;;18.35;6.72;;;;;;;17.73;58.04;102586.50;5075166;28;20105;-83
2023/05/27 09:44:28;;;;;;;18.13;7.22;;;;;;;17.80;58.20;102610.44;5074421;28;20113;-85
2023/05/27 09:46:54;;;;;;;17.80;7.43;;;;;;;17.64;55.57;102607.97;5057456;28;20103;-87
2023/05/27 09:49:21;;;;;;;17.63;7.00;;;;;;;17.32;56.64;102574.31;5074714;28;20127;-85
2023/05/27 09:51:47;;;;;;;18.45;7.88;;;;;;;17.34;55.36;102593.31;5074900;28;20451;-82
2023/05/27 09:54:18;;;;;;;19.08;7.60;;;;;;;17.40;59.01;102606.00;5074990;28;20051;-87
2023/05/27 09:56:45;;;;;;;17.75;7.25;;;;;;;17.28;60.03;102605.91;5074909;28;20392;-87
2023/05/27 09:59:11;;;;;;;17.77;8.35;;;;;;;16.99;60.30;102571.19;5073714;28;20020;-78
2023/05/27 10:01:38;;;;;;;17.15;7.45;;;;;;;17.06;58.50;102577.72;5075421;28;20135;-86
2023/05/27 10:04:04;;;;;;;16.85;6.65;;;;;;;17.18;60.78;102585.59;5075061;28;20055;-85
2023/05/27 10:06:32;;;;;;;18.50;7.32;;;;;;;17.03;61.51;102572.69;5074565;28;20059;-84
2023/05/27 10:08:57;;;;;;;20.40;7.88;;;;;;;16.96;55.32;102571.38;5074671;28;20028;-83
2023/05/27 10:11:25;;;;;;;17.73;7.25;;;;;;;17.08;57.27;102594.09;5074655;28;20032;-85
2023/05/27 10:13:51;;;;;;;17.13;7.68;;;;;;;16.94;57.51;102584.53;5074624;28;20076;-84
2023/05/27 10:16:22;;;;;;;25.35;7.75;;;;;;;16.73;55.07;102591.06;5074275;28;20492;-76
2023/05/27 10:18:56;;;;;;;17.52;7.72;;;;;;;16.61;58.94;102580.41;5074528;28;20389;-81
2023/05/27 10:21:24;;;;;;;17.42;7.43;;;;;;;16.52;59.75;102564.50;5074332;28;20043;-82
2023/05/27 10:23:56;;;;;;;18.85;7.60;;;;;;;16.65;58.92;102578.47;5074470;28;20024;-84
2023/05/27 10:26:32;;;;;;;20.88;7.53;;;;;;;16.76;58.66;102577.84;5074470;28;20511;-85
2023/05/27 10:29:08;;;;;;;16.85;7.63;;;;;;;16.90;60.56;102569.97;5071116;28;20032;-84
2023/05/27 10:31:36;;;;;;;19.40;7.60;;;;;;;17.14;59.02;102573.69;5056294;28;20043;-82
2023/05/27 10:34:04;;;;;;;19.00;8.30;;;;;;;17.31;60.04;102558.75;5073936;28;20034;-76
2023/05/27 10:36:36;;;;;;;16.40;7.55;;;;;;;17.47;59.58;102548.97;5073942;28;20034;-87
2023/05/27 10:39:16;;;;;;;16.80;7.72;;;;;;;17.64;54.54;102559.16;5074102;28;20051;-81
2023/05/27 10:41:51;;;;;;;16.85;7.07;;;;;;;17.86;56.12;102560.38;5074112;28;20027;-83
2023/05/27 10:44:28;;;;;;;22.48;6.45;;;;;;;18.16;55.43;102560.94;5073837;28;20024;-84
2023/05/27 10:47:03;;;;;;;17.42;6.45;;;;;;;18.37;53.88;102545.56;5073953;28;20031;-84
2023/05/27 10:49:35;;;;;;;18.10;6.65;;;;;;;18.48;52.00;102547.44;5073619;28;20024;-79
2023/05/27 10:52:06;;;;;;;17.35;7.03;;;;;;;18.54;52.27;102536.56;5073965;28;20024;-80
2023/05/27 10:54:33;;;;;;;18.95;7.55;;;;;;;18.21;50.13;102510.97;5073096;28;20131;-83
2023/05/27 10:56:59;;;;;;;18.33;7.20;;;;;;;18.21;52.08;102530.13;5073367;28;20384;-83
2023/05/27 10:59:39;;;;;;;16.42;7.38;;;;;;;18.03;50.64;102508.66;5073707;28;20032;-82
2023/05/27 11:02:05;;;;;;;16.10;7.03;;;;;;;18.27;53.29;102515.75;5073623;28;20075;-82
2023/05/27 11:04:37;;;;;;;19.48;7.15;;;;;;;18.45;51.04;102504.03;5073884;28;20017;-85
2023/05/27 11:07:04;;;;;;;17.20;6.78;;;;;;;18.72;50.83;102514.38;5073821;28;20025;-77
2023/05/27 11:09:30;;;;;;;15.77;6.15;;;;;;;18.88;49.71;102511.53;5073966;28;20032;-82
2023/05/27 11:11:56;;;;;;;14.68;6.22;;;;;;;18.81;49.70;102486.72;5073538;28;20130;-82
2023/05/27 11:14:23;;;;;;;15.10;6.15;;;;;;;18.81;49.64;102492.78;5073388;28;20025;-79
2023/05/27 11:16:51;;;;;;;12.77;5.45;;;;;;;18.90;51.03;102510.47;5073017;28;20051;-81